Terminal Aerodrome Forecast
Issued by NWS Flagstaff, AZ

Home | Current Version | Previous Version | Text Only | Print | Product List | Glossary On
Versions: 1 2 3 4 5 6 7 8 9 10 11 12 13 14 15 16 17
000
FTUS45 KFGZ 251700 RRA
TAFINW
TAF
KINW 251742Z 2518/2618 22017G27KT P6SM FEW060 SCT250
     FM251900 23015G25KT P6SM BKN060
     FM260000 27012KT P6SM SCT070 SCT150 PROB30 2606/2612 4SM -SHSN
      BKN025
     FM261200 VRB05KT P6SM FEW050=

USA.gov is the U.S. government's official web portal to all federal, state and local government web resources and services.